Battle Ground, IN

1:45 PM EDT on July 03, 2015 (GMT -0400)
Prophet's Ridge | | Change Station
CLOSE
Current Station
Personal Weather Station
Location: West Lafayette, IN
Elevation: 679 ft
Nearby Weather Stations
Active Advisory: Flood Warning

Elev 679 ft 40.48 °N, 86.89 °W | Updated 21 seconds ago

Partly Cloudy
Partly Cloudy
72.6 °F
Feels Like 74 °F
N
1.0
Wind Variable Wind from North
Gusts 3.0 mph

Today
High -- | Low -- °F
--% Chance of Precip.
Yesterday
High -- | Low -- °F
Precip. -- in
6:21 AM 9:21 PM
Waning Gibbous, 96% visible
Pressure 29.93 in
Visibility 10.0 miles
Clouds Few 4300 ft
Heat Index 74 °F
Dew Point 64 °F
Humidity 75%
Rainfall 0.00 in
Snow Depth Not available.
UV 11 out of 12
Pollen .50 out of 12
Air Quality Not available.
Flu Activity Not available.
METAR KLAF 031654Z 05006KT 10SM FEW043 22/16 A2994 RMK AO2 SLP135 T02170161

More Conditions Fewer Conditions

Pressure 29.93 in
Visibility 10.0 miles
Clouds Few 4300 ft
Heat Index 74 °F
Dew Point 64 °F
Humidity 75%
Rainfall 0.00 in
Snow Depth Not available.
UV 11 out of 12
Pollen .50 out of 12
Air Quality Not available.
Flu Activity Not available.
METAR KLAF 031654Z 05006KT 10SM FEW043 22/16 A2994 RMK AO2 SLP135 T02170161

More Conditions Fewer Conditions

10-Day Weather Forecast

×

Almanac

Astronomy

Jul. 03, 2015 Rise Set
Actual Time
Civil Twilight
Nautical Twilight
Astronomical Twilight
Moon
Length of Visible Light
Length of Day
Tomorrow will be .
, % of the Moon is Illuminated

Today's Extremes

State Highs State Lows

Community

WunderPhotos

Upload Photos

1,834,727 photos uploaded!

WunderBlogs® & News

Nearby

Air Quality

  Air Quality AQ Index Pollutant
Not available.

Snow Depth

Station Depth Elevation

Earthquake Activity

City Distance Mag. Time & Date
Minimum magnitude displayed is 2.5.

Coastal Water Temperatures

Place Temperature

Stations

Nearby Weather Stations

Station Location Temp. Windchill Dew Point Humidity Wind Precip. Elev Updated Type
                   
Flood Warning
Statement as of 10:48 AM EDT on July 03, 2015

The Flood Warning continues for
the Wabash River at Lafayette.
* Until further notice.
* At 10:16 am Friday the stage was 16.5 feet.
* Flood stage is 11.0 feet.
* Minor flooding is occurring and minor flooding is forecast.
* Forecast... the river will continue to fall to a stage of 15.3 feet
by tomorrow morning.
* At 16.0 feet... lowland flooding is in progress. Flood waters near
State Road 225 between old Indiana 25 and battleground. Warren CR
350 N near Black Rock preserve and Tippecanoe CR 950 W in the
Wabash bottoms... janssen tract... may be impassable. Fort ouiatenon
grounds begins to flood. Flooding at the Grandville public access
site.


Lat... Lon 4056 8673 4048 8688 4040 8709 4033 8709
      4040 8688 4054 8670